sensor_id;sensor_type;location;lat;lon;timestamp;pressure;altitude;pressure_sealevel;temperature;humidity
62548;BME280;48602;45.192;5.722;2023-06-19T00:01:59;98996.22;;;23.37;50.08
62548;BME280;48602;45.192;5.722;2023-06-19T00:04:25;98983.78;;;23.36;50.29
62548;BME280;48602;45.192;5.722;2023-06-19T00:06:52;98998.22;;;23.35;50.72
62548;BME280;48602;45.192;5.722;2023-06-19T00:09:17;98992.69;;;23.36;50.27
62548;BME280;48602;45.192;5.722;2023-06-19T00:11:43;99004.16;;;23.38;49.96
62548;BME280;48602;45.192;5.722;2023-06-19T00:14:08;99014.78;;;23.40;49.67
62548;BME280;48602;45.192;5.722;2023-06-19T00:16:34;99026.53;;;23.39;50.16
62548;BME280;48602;45.192;5.722;2023-06-19T00:18:59;99038.16;;;23.39;50.54
62548;BME280;48602;45.192;5.722;2023-06-19T00:21:25;99030.22;;;23.38;50.13
62548;BME280;48602;45.192;5.722;2023-06-19T00:23:51;99027.66;;;23.36;50.52
62548;BME280;48602;45.192;5.722;2023-06-19T00:26:18;99024.97;;;23.36;50.05
62548;BME280;48602;45.192;5.722;2023-06-19T00:28:44;99042.81;;;23.37;50.65
62548;BME280;48602;45.192;5.722;2023-06-19T00:31:11;99029.50;;;23.36;51.00
62548;BME280;48602;45.192;5.722;2023-06-19T00:33:39;99039.28;;;23.37;50.39
62548;BME280;48602;45.192;5.722;2023-06-19T00:36:15;99040.97;;;23.38;50.84
62548;BME280;48602;45.192;5.722;2023-06-19T00:38:41;99039.28;;;23.37;50.96
62548;BME280;48602;45.192;5.722;2023-06-19T00:41:06;99051.03;;;23.36;51.16
62548;BME280;48602;45.192;5.722;2023-06-19T00:43:33;99066.19;;;23.37;51.05
62548;BME280;48602;45.192;5.722;2023-06-19T00:45:59;99069.03;;;23.35;51.02
62548;BME280;48602;45.192;5.722;2023-06-19T00:48:26;99060.09;;;23.35;51.06
62548;BME280;48602;45.192;5.722;2023-06-19T00:50:52;99067.31;;;23.34;51.36
62548;BME280;48602;45.192;5.722;2023-06-19T00:53:19;99064.63;;;23.34;51.11
62548;BME280;48602;45.192;5.722;2023-06-19T00:55:45;99069.03;;;23.35;51.15
62548;BME280;48602;45.192;5.722;2023-06-19T00:58:11;99060.81;;;23.37;51.31
62548;BME280;48602;45.192;5.722;2023-06-19T01:00:37;99057.25;;;23.36;51.56
62548;BME280;48602;45.192;5.722;2023-06-19T01:03:02;99054.00;;;23.32;51.00
62548;BME280;48602;45.192;5.722;2023-06-19T01:05:29;99050.91;;;23.27;52.10
62548;BME280;48602;45.192;5.722;2023-06-19T01:10:28;99051.47;;;23.21;52.03
62548;BME280;48602;45.192;5.722;2023-06-19T01:13:16;99047.81;;;23.22;52.14
62548;BME280;48602;45.192;5.722;2023-06-19T01:15:42;99050.91;;;23.18;52.25
62548;BME280;48602;45.192;5.722;2023-06-19T01:18:09;99045.66;;;23.16;52.60
62548;BME280;48602;45.192;5.722;2023-06-19T01:20:37;99043.25;;;23.13;52.45
62548;BME280;48602;45.192;5.722;2023-06-19T01:23:09;99039.03;;;23.11;53.01
62548;BME280;48602;45.192;5.722;2023-06-19T01:25:35;99051.06;;;23.07;52.61
62548;BME280;48602;45.192;5.722;2023-06-19T01:28:02;99045.97;;;23.04;52.38
62548;BME280;48602;45.192;5.722;2023-06-19T01:30:29;99054.47;;;22.99;53.03
62548;BME280;48602;45.192;5.722;2023-06-19T01:33:11;99046.66;;;22.96;53.07
62548;BME280;48602;45.192;5.722;2023-06-19T01:35:40;99058.56;;;22.93;53.47
62548;BME280;48602;45.192;5.722;2023-06-19T01:38:07;99046.25;;;22.91;54.31
62548;BME280;48602;45.192;5.722;2023-06-19T01:40:33;99045.69;;;22.87;54.26
62548;BME280;48602;45.192;5.722;2023-06-19T01:43:00;99049.50;;;22.85;53.59
62548;BME280;48602;45.192;5.722;2023-06-19T01:45:30;99046.09;;;22.83;53.50
62548;BME280;48602;45.192;5.722;2023-06-19T01:47:56;99048.94;;;22.81;54.17
62548;BME280;48602;45.192;5.722;2023-06-19T01:50:25;99047.94;;;22.82;53.48
62548;BME280;48602;45.192;5.722;2023-06-19T01:52:51;99036.34;;;22.82;53.89
62548;BME280;48602;45.192;5.722;2023-06-19T01:55:16;99043.69;;;22.80;54.13
62548;BME280;48602;45.192;5.722;2023-06-19T01:57:42;99035.63;;;22.80;54.23
62548;BME280;48602;45.192;5.722;2023-06-19T02:00:08;99024.88;;;22.80;54.11
62548;BME280;48602;45.192;5.722;2023-06-19T02:02:35;99033.50;;;22.83;53.92
62548;BME280;48602;45.192;5.722;2023-06-19T02:05:01;99024.31;;;22.86;53.82
62548;BME280;48602;45.192;5.722;2023-06-19T02:07:26;99034.94;;;22.87;53.42
62548;BME280;48602;45.192;5.722;2023-06-19T02:09:51;99038.34;;;22.89;54.03
62548;BME280;48602;45.192;5.722;2023-06-19T02:12:17;99020.66;;;22.87;53.58
62548;BME280;48602;45.192;5.722;2023-06-19T02:14:43;99027.84;;;22.86;54.03
62548;BME280;48602;45.192;5.722;2023-06-19T02:17:08;99027.72;;;22.88;53.62
62548;BME280;48602;45.192;5.722;2023-06-19T02:19:33;99028.44;;;22.90;54.19
62548;BME280;48602;45.192;5.722;2023-06-19T02:21:59;99015.00;;;22.90;53.84
62548;BME280;48602;45.192;5.722;2023-06-19T02:24:24;99023.06;;;22.90;53.85
62548;BME280;48602;45.192;5.722;2023-06-19T02:26:50;99022.34;;;22.88;53.69
62548;BME280;48602;45.192;5.722;2023-06-19T02:29:15;99014.28;;;22.88;54.04
62548;BME280;48602;45.192;5.722;2023-06-19T02:31:41;99017.38;;;22.83;54.24
62548;BME280;48602;45.192;5.722;2023-06-19T02:34:08;99029.25;;;22.81;54.47
62548;BME280;48602;45.192;5.722;2023-06-19T02:36:34;99026.44;;;22.82;54.78
62548;BME280;48602;45.192;5.722;2023-06-19T02:39:00;99030.09;;;22.81;54.32
62548;BME280;48602;45.192;5.722;2023-06-19T02:41:26;99017.53;;;22.82;54.63
62548;BME280;48602;45.192;5.722;2023-06-19T02:43:51;99013.13;;;22.81;54.91
62548;BME280;48602;45.192;5.722;2023-06-19T02:46:17;99017.97;;;22.77;54.82
62548;BME280;48602;45.192;5.722;2023-06-19T02:48:42;99016.22;;;22.76;55.02
62548;BME280;48602;45.192;5.722;2023-06-19T02:51:08;99007.06;;;22.79;54.71
62548;BME280;48602;45.192;5.722;2023-06-19T02:53:33;99005.22;;;22.79;54.64
62548;BME280;48602;45.192;5.722;2023-06-19T02:55:59;99000.84;;;22.78;54.40
62548;BME280;48602;45.192;5.722;2023-06-19T02:58:24;99008.91;;;22.78;54.84
62548;BME280;48602;45.192;5.722;2023-06-19T03:00:52;98999.00;;;22.79;54.37
62548;BME280;48602;45.192;5.722;2023-06-19T03:03:17;99003.69;;;22.77;55.01
62548;BME280;48602;45.192;5.722;2023-06-19T03:05:43;99000.53;;;22.72;54.65
62548;BME280;48602;45.192;5.722;2023-06-19T03:08:08;99004.47;;;22.68;55.15
62548;BME280;48602;45.192;5.722;2023-06-19T03:10:33;99010.13;;;22.64;55.13
62548;BME280;48602;45.192;5.722;2023-06-19T03:12:59;99014.78;;;22.62;55.44
62548;BME280;48602;45.192;5.722;2023-06-19T03:15:25;99010.00;;;22.56;55.58
62548;BME280;48602;45.192;5.722;2023-06-19T03:17:50;99014.06;;;22.51;55.90
62548;BME280;48602;45.192;5.722;2023-06-19T03:20:15;99001.22;;;22.45;55.70
62548;BME280;48602;45.192;5.722;2023-06-19T03:22:41;99007.72;;;22.42;56.40
62548;BME280;48602;45.192;5.722;2023-06-19T03:25:07;99008.13;;;22.38;55.67
62548;BME280;48602;45.192;5.722;2023-06-19T03:27:33;99011.22;;;22.33;56.86
62548;BME280;48602;45.192;5.722;2023-06-19T03:29:59;99021.38;;;22.29;56.45
62548;BME280;48602;45.192;5.722;2023-06-19T03:32:24;99015.47;;;22.26;56.30
62548;BME280;48602;45.192;5.722;2023-06-19T03:34:50;99012.91;;;22.24;57.18
62548;BME280;48602;45.192;5.722;2023-06-19T03:37:15;99011.47;;;22.20;57.34
62548;BME280;48602;45.192;5.722;2023-06-19T03:39:42;99024.31;;;22.17;56.85
62548;BME280;48602;45.192;5.722;2023-06-19T03:42:07;99012.88;;;22.15;57.48
62548;BME280;48602;45.192;5.722;2023-06-19T03:44:33;99024.31;;;22.17;56.63
62548;BME280;48602;45.192;5.722;2023-06-19T03:46:58;99027.72;;;22.19;57.13
62548;BME280;48602;45.192;5.722;2023-06-19T03:49:24;99021.38;;;22.20;57.14
62548;BME280;48602;45.192;5.722;2023-06-19T03:51:49;99026.19;;;22.26;57.25
62548;BME280;48602;45.192;5.722;2023-06-19T03:54:15;99022.66;;;22.35;56.98
62548;BME280;48602;45.192;5.722;2023-06-19T03:56:40;99024.69;;;22.43;56.35
62548;BME280;48602;45.192;5.722;2023-06-19T03:59:06;99032.03;;;22.50;56.33
62548;BME280;48602;45.192;5.722;2023-06-19T04:01:31;99029.06;;;22.53;56.34
62548;BME280;48602;45.192;5.722;2023-06-19T04:03:56;99032.59;;;22.54;55.94
62548;BME280;48602;45.192;5.722;2023-06-19T04:06:22;99029.91;;;22.54;56.34
62548;BME280;48602;45.192;5.722;2023-06-19T04:08:48;99028.22;;;22.53;55.84
62548;BME280;48602;45.192;5.722;2023-06-19T04:11:13;99036.56;;;22.50;55.91
62548;BME280;48602;45.192;5.722;2023-06-19T04:13:39;99046.03;;;22.44;56.67
62548;BME280;48602;45.192;5.722;2023-06-19T04:16:04;99048.16;;;22.41;57.15
62548;BME280;48602;45.192;5.722;2023-06-19T04:18:29;99040.34;;;22.38;56.80
62548;BME280;48602;45.192;5.722;2023-06-19T04:20:55;99034.97;;;22.38;56.91
62548;BME280;48602;45.192;5.722;2023-06-19T04:23:20;99030.59;;;22.37;57.01
62548;BME280;48602;45.192;5.722;2023-06-19T04:25:46;99034.13;;;22.37;57.10
62548;BME280;48602;45.192;5.722;2023-06-19T04:28:11;99039.50;;;22.37;56.72
62548;BME280;48602;45.192;5.722;2023-06-19T04:30:36;99042.91;;;22.39;56.95
62548;BME280;48602;45.192;5.722;2023-06-19T04:33:04;99038.25;;;22.41;57.13
62548;BME280;48602;45.192;5.722;2023-06-19T04:35:31;99039.09;;;22.42;57.11
62548;BME280;48602;45.192;5.722;2023-06-19T04:37:56;99043.63;;;22.41;57.48
62548;BME280;48602;45.192;5.722;2023-06-19T04:40:26;99043.75;;;22.40;57.00
62548;BME280;48602;45.192;5.722;2023-06-19T04:42:52;99046.56;;;22.38;56.83
62548;BME280;48602;45.192;5.722;2023-06-19T04:45:19;99038.53;;;22.38;57.28
62548;BME280;48602;45.192;5.722;2023-06-19T04:47:44;99036.69;;;22.39;57.29
62548;BME280;48602;45.192;5.722;2023-06-19T04:50:10;99038.38;;;22.40;57.62
62548;BME280;48602;45.192;5.722;2023-06-19T04:52:35;99048.00;;;22.42;57.26
62548;BME280;48602;45.192;5.722;2023-06-19T04:55:01;99034.13;;;22.47;57.46
62548;BME280;48602;45.192;5.722;2023-06-19T04:57:26;99045.72;;;22.47;57.25
62548;BME280;48602;45.192;5.722;2023-06-19T04:59:52;99036.69;;;22.48;57.27
62548;BME280;48602;45.192;5.722;2023-06-19T05:02:17;99039.09;;;22.51;56.71
62548;BME280;48602;45.192;5.722;2023-06-19T05:04:42;99044.06;;;22.56;56.87
62548;BME280;48602;45.192;5.722;2023-06-19T05:07:09;99040.13;;;22.60;56.43
62548;BME280;48602;45.192;5.722;2023-06-19T05:09:36;99036.28;;;22.62;56.46
62548;BME280;48602;45.192;5.722;2023-06-19T05:12:01;99045.38;;;22.61;56.40
62548;BME280;48602;45.192;5.722;2023-06-19T05:14:26;99044.50;;;22.61;56.41
62548;BME280;48602;45.192;5.722;2023-06-19T05:16:53;99048.19;;;22.60;56.80
62548;BME280;48602;45.192;5.722;2023-06-19T05:19:18;99046.63;;;22.57;57.20
62548;BME280;48602;45.192;5.722;2023-06-19T05:21:43;99040.53;;;22.55;56.52
62548;BME280;48602;45.192;5.722;2023-06-19T05:24:09;99033.31;;;22.56;57.40
62548;BME280;48602;45.192;5.722;2023-06-19T05:26:34;99042.22;;;22.56;57.68
62548;BME280;48602;45.192;5.722;2023-06-19T05:29:00;99049.03;;;22.60;56.84
62548;BME280;48602;45.192;5.722;2023-06-19T05:31:25;99041.38;;;22.66;56.95
62548;BME280;48602;45.192;5.722;2023-06-19T05:33:51;99052.97;;;22.66;57.13
62548;BME280;48602;45.192;5.722;2023-06-19T05:36:17;99049.31;;;22.67;57.02
62548;BME280;48602;45.192;5.722;2023-06-19T05:38:43;99055.66;;;22.66;57.33
62548;BME280;48602;45.192;5.722;2023-06-19T05:41:08;99055.66;;;22.66;57.15
62548;BME280;48602;45.192;5.722;2023-06-19T05:43:33;99047.75;;;22.64;57.50
62548;BME280;48602;45.192;5.722;2023-06-19T05:45:59;99054.09;;;22.63;57.27
62548;BME280;48602;45.192;5.722;2023-06-19T05:48:25;99046.34;;;22.60;57.20
62548;BME280;48602;45.192;5.722;2023-06-19T05:50:51;99052.00;;;22.57;57.92
62548;BME280;48602;45.192;5.722;2023-06-19T05:53:17;99049.59;;;22.54;57.84
62548;BME280;48602;45.192;5.722;2023-06-19T05:55:42;99046.19;;;22.52;57.99
62548;BME280;48602;45.192;5.722;2023-06-19T05:58:08;99053.38;;;22.52;58.12
62548;BME280;48602;45.192;5.722;2023-06-19T06:00:34;99064.00;;;22.53;57.93
62548;BME280;48602;45.192;5.722;2023-06-19T06:02:59;99049.59;;;22.54;57.68
62548;BME280;48602;45.192;5.722;2023-06-19T06:05:26;99054.81;;;22.56;57.99
62548;BME280;48602;45.192;5.722;2023-06-19T06:07:52;99056.53;;;22.57;58.28
62548;BME280;48602;45.192;5.722;2023-06-19T06:10:19;99055.25;;;22.61;58.56
62548;BME280;48602;45.192;5.722;2023-06-19T06:12:45;99054.81;;;22.66;58.32
62548;BME280;48602;45.192;5.722;2023-06-19T06:15:10;99048.31;;;22.68;57.88
62548;BME280;48602;45.192;5.722;2023-06-19T06:17:36;99054.28;;;22.72;58.01
62548;BME280;48602;45.192;5.722;2023-06-19T06:20:02;99057.53;;;22.75;57.98
62548;BME280;48602;45.192;5.722;2023-06-19T06:22:31;99061.53;;;22.81;58.22
62548;BME280;48602;45.192;5.722;2023-06-19T06:24:56;99054.31;;;22.81;57.25
62548;BME280;48602;45.192;5.722;2023-06-19T06:27:22;99058.56;;;22.84;57.46
62548;BME280;48602;45.192;5.722;2023-06-19T06:29:47;99057.56;;;22.85;57.52
62548;BME280;48602;45.192;5.722;2023-06-19T06:32:12;99058.28;;;22.87;57.30
62548;BME280;48602;45.192;5.722;2023-06-19T06:34:38;99058.13;;;22.88;57.77
62548;BME280;48602;45.192;5.722;2023-06-19T06:37:03;99061.81;;;22.87;57.88
62548;BME280;48602;45.192;5.722;2023-06-19T06:39:29;99067.19;;;22.87;57.64
62548;BME280;48602;45.192;5.722;2023-06-19T06:41:55;99067.06;;;22.89;57.82
62548;BME280;48602;45.192;5.722;2023-06-19T06:44:20;99061.53;;;22.90;57.78
62548;BME280;48602;45.192;5.722;2023-06-19T06:46:45;99068.47;;;22.93;58.32
62548;BME280;48602;45.192;5.722;2023-06-19T06:49:11;99079.09;;;22.94;58.03
62548;BME280;48602;45.192;5.722;2023-06-19T06:51:36;99079.09;;;22.94;58.14
62548;BME280;48602;45.192;5.722;2023-06-19T06:54:02;99082.34;;;22.88;58.01
62548;BME280;48602;45.192;5.722;2023-06-19T06:56:27;99091.22;;;22.79;59.12
62548;BME280;48602;45.192;5.722;2023-06-19T06:58:53;99087.66;;;22.69;59.04
62548;BME280;48602;45.192;5.722;2023-06-19T07:01:18;99094.72;;;22.60;59.41
62548;BME280;48602;45.192;5.722;2023-06-19T07:03:43;99094.28;;;22.55;59.78
62548;BME280;48602;45.192;5.722;2023-06-19T07:06:09;99090.16;;;22.51;59.70
62548;BME280;48602;45.192;5.722;2023-06-19T07:08:34;99098.63;;;22.47;60.22
62548;BME280;48602;45.192;5.722;2023-06-19T07:11:00;99089.16;;;22.43;59.41
62548;BME280;48602;45.192;5.722;2023-06-19T07:13:25;99090.28;;;22.40;59.69
62548;BME280;48602;45.192;5.722;2023-06-19T07:15:51;99093.09;;;22.39;59.59
62548;BME280;48602;45.192;5.722;2023-06-19T07:18:16;99097.75;;;22.37;60.38
62548;BME280;48602;45.192;5.722;2023-06-19T07:20:42;99094.34;;;22.35;60.93
62548;BME280;48602;45.192;5.722;2023-06-19T07:23:09;99094.09;;;22.38;60.87
62548;BME280;48602;45.192;5.722;2023-06-19T07:25:34;99085.88;;;22.39;60.33
62548;BME280;48602;45.192;5.722;2023-06-19T07:28:00;99089.44;;;22.40;61.20
62548;BME280;48602;45.192;5.722;2023-06-19T07:30:26;99087.59;;;22.40;62.30
62548;BME280;48602;45.192;5.722;2023-06-19T07:32:52;99084.78;;;22.42;62.46
62548;BME280;48602;45.192;5.722;2023-06-19T07:35:17;99084.19;;;22.48;63.09
62548;BME280;48602;45.192;5.722;2023-06-19T07:37:44;99086.47;;;22.52;63.16
62548;BME280;48602;45.192;5.722;2023-06-19T07:40:09;99090.47;;;22.58;62.95
62548;BME280;48602;45.192;5.722;2023-06-19T07:42:35;99081.97;;;22.62;62.40
62548;BME280;48602;45.192;5.722;2023-06-19T07:45:00;99096.13;;;22.64;63.70
62548;BME280;48602;45.192;5.722;2023-06-19T07:47:26;99084.81;;;22.71;62.94
62548;BME280;48602;45.192;5.722;2023-06-19T07:49:52;99083.56;;;22.75;63.14
62548;BME280;48602;45.192;5.722;2023-06-19T07:52:17;99085.44;;;22.84;62.39
62548;BME280;48602;45.192;5.722;2023-06-19T07:54:54;99086.44;;;22.92;62.60
62548;BME280;48602;45.192;5.722;2023-06-19T07:57:21;99081.47;;;22.97;62.91
62548;BME280;48602;45.192;5.722;2023-06-19T07:59:48;99079.22;;;23.03;62.28
62548;BME280;48602;45.192;5.722;2023-06-19T08:02:13;99088.59;;;23.08;62.72
62548;BME280;48602;45.192;5.722;2023-06-19T08:04:39;99094.66;;;23.20;61.86
62548;BME280;48602;45.192;5.722;2023-06-19T08:07:05;99087.59;;;23.28;61.69
62548;BME280;48602;45.192;5.722;2023-06-19T08:09:30;99078.66;;;23.38;62.18
62548;BME280;48602;45.192;5.722;2023-06-19T08:11:56;99085.44;;;23.42;61.89
62548;BME280;48602;45.192;5.722;2023-06-19T08:14:22;99080.06;;;23.42;61.78
62548;BME280;48602;45.192;5.722;2023-06-19T08:16:47;99085.84;;;23.47;61.49
62548;BME280;48602;45.192;5.722;2023-06-19T08:19:13;99080.91;;;23.52;60.63
62548;BME280;48602;45.192;5.722;2023-06-19T08:21:38;99076.97;;;23.56;60.38
62548;BME280;48602;45.192;5.722;2023-06-19T08:24:03;99073.53;;;23.63;60.66
62548;BME280;48602;45.192;5.722;2023-06-19T08:26:29;99067.72;;;23.68;59.70
62548;BME280;48602;45.192;5.722;2023-06-19T08:28:54;99068.28;;;23.72;59.76
62548;BME280;48602;45.192;5.722;2023-06-19T08:31:20;99065.59;;;23.72;59.39
62548;BME280;48602;45.192;5.722;2023-06-19T08:33:47;99070.81;;;23.73;59.22
62548;BME280;48602;45.192;5.722;2023-06-19T08:36:13;99067.72;;;23.78;58.97
62548;BME280;48602;45.192;5.722;2023-06-19T08:38:39;99060.56;;;23.86;58.77
62548;BME280;48602;45.192;5.722;2023-06-19T08:41:04;99063.06;;;23.97;58.86
62548;BME280;48602;45.192;5.722;2023-06-19T08:43:30;99065.47;;;24.10;58.86
62548;BME280;48602;45.192;5.722;2023-06-19T08:46:18;99066.69;;;24.25;58.58
62548;BME280;48602;45.192;5.722;2023-06-19T08:48:44;99066.47;;;24.37;58.76
62548;BME280;48602;45.192;5.722;2023-06-19T08:51:11;99068.97;;;24.48;58.43
62548;BME280;48602;45.192;5.722;2023-06-19T08:53:47;99052.34;;;24.52;58.17
62548;BME280;48602;45.192;5.722;2023-06-19T08:56:13;99051.91;;;24.57;57.83
62548;BME280;48602;45.192;5.722;2023-06-19T08:58:38;99057.28;;;24.57;57.82
62548;BME280;48602;45.192;5.722;2023-06-19T09:01:04;99058.59;;;24.53;57.94
62548;BME280;48602;45.192;5.722;2023-06-19T09:03:30;99054.03;;;24.53;58.39
62548;BME280;48602;45.192;5.722;2023-06-19T09:05:55;99045.81;;;24.55;58.44
62548;BME280;48602;45.192;5.722;2023-06-19T09:08:22;99045.38;;;24.59;58.85
62548;BME280;48602;45.192;5.722;2023-06-19T09:10:58;99048.97;;;24.68;58.53
62548;BME280;48602;45.192;5.722;2023-06-19T09:13:23;99052.47;;;24.78;58.22
62548;BME280;48602;45.192;5.722;2023-06-19T09:16:00;99049.69;;;24.88;58.17
62548;BME280;48602;45.192;5.722;2023-06-19T09:18:29;99041.53;;;24.97;57.63
62548;BME280;48602;45.192;5.722;2023-06-19T09:20:55;99046.72;;;25.09;56.97
62548;BME280;48602;45.192;5.722;2023-06-19T09:23:20;99034.22;;;25.25;56.85
62548;BME280;48602;45.192;5.722;2023-06-19T09:25:57;99034.03;;;25.45;56.15
62548;BME280;48602;45.192;5.722;2023-06-19T09:28:24;99035.88;;;25.62;55.88
62548;BME280;48602;45.192;5.722;2023-06-19T09:31:01;99031.41;;;25.79;54.86
62548;BME280;48602;45.192;5.722;2023-06-19T09:33:29;99031.81;;;25.92;54.99
62548;BME280;48602;45.192;5.722;2023-06-19T09:35:55;99037.06;;;26.01;54.58
62548;BME280;48602;45.192;5.722;2023-06-19T09:38:24;99044.41;;;26.17;54.82
62548;BME280;48602;45.192;5.722;2023-06-19T09:40:50;99038.94;;;26.35;54.62
62548;BME280;48602;45.192;5.722;2023-06-19T09:43:19;99035.13;;;26.54;53.51
62548;BME280;48602;45.192;5.722;2023-06-19T09:45:48;99029.91;;;26.68;52.84
62548;BME280;48602;45.192;5.722;2023-06-19T09:48:19;99027.75;;;26.80;52.73
62548;BME280;48602;45.192;5.722;2023-06-19T09:50:48;99013.88;;;26.91;52.38
62548;BME280;48602;45.192;5.722;2023-06-19T09:53:17;99016.44;;;27.01;52.03
62548;BME280;48602;45.192;5.722;2023-06-19T09:55:42;99016.47;;;27.09;51.78
62548;BME280;48602;45.192;5.722;2023-06-19T09:58:08;99011.06;;;27.09;51.40
62548;BME280;48602;45.192;5.722;2023-06-19T10:00:35;99008.53;;;27.07;51.45
62548;BME280;48602;45.192;5.722;2023-06-19T10:03:02;99005.28;;;27.04;50.81
62548;BME280;48602;45.192;5.722;2023-06-19T10:05:32;99006.31;;;27.03;50.88
62548;BME280;48602;45.192;5.722;2023-06-19T10:07:58;99002.25;;;26.99;50.40
62548;BME280;48602;45.192;5.722;2023-06-19T10:10:28;99001.03;;;26.93;51.01
62548;BME280;48602;45.192;5.722;2023-06-19T10:13:14;98996.34;;;26.95;50.96
62548;BME280;48602;45.192;5.722;2023-06-19T10:15:41;98989.91;;;26.96;50.82
62548;BME280;48602;45.192;5.722;2023-06-19T10:18:17;98986.66;;;26.93;50.99
62548;BME280;48602;45.192;5.722;2023-06-19T10:20:44;99000.75;;;26.96;51.13
62548;BME280;48602;45.192;5.722;2023-06-19T10:23:18;98996.66;;;27.00;50.69
62548;BME280;48602;45.192;5.722;2023-06-19T10:25:45;98986.53;;;27.02;50.05
62548;BME280;48602;45.192;5.722;2023-06-19T10:30:42;98990.59;;;27.06;50.09
62548;BME280;48602;45.192;5.722;2023-06-19T10:33:07;98977.72;;;27.08;49.98
62548;BME280;48602;45.192;5.722;2023-06-19T10:35:40;98985.50;;;27.03;49.88
62548;BME280;48602;45.192;5.722;2023-06-19T10:38:06;98981.41;;;26.91;49.68
62548;BME280;48602;45.192;5.722;2023-06-19T10:40:32;98990.72;;;26.81;50.71
62548;BME280;48602;45.192;5.722;2023-06-19T10:42:57;98981.91;;;26.70;51.60
62548;BME280;48602;45.192;5.722;2023-06-19T10:45:23;98978.19;;;26.71;51.86
62548;BME280;48602;45.192;5.722;2023-06-19T10:47:54;98971.25;;;26.69;50.86
62548;BME280;48602;45.192;5.722;2023-06-19T10:50:20;98969.91;;;26.57;51.39
62548;BME280;48602;45.192;5.722;2023-06-19T10:52:46;98969.53;;;26.44;51.51
62548;BME280;48602;45.192;5.722;2023-06-19T10:55:13;98973.03;;;26.28;51.46
62548;BME280;48602;45.192;5.722;2023-06-19T10:57:43;98971.59;;;26.16;52.18
62548;BME280;48602;45.192;5.722;2023-06-19T11:00:09;98959.63;;;26.10;52.15
62548;BME280;48602;45.192;5.722;2023-06-19T11:02:41;98962.47;;;26.08;52.28
62548;BME280;48602;45.192;5.722;2023-06-19T11:05:09;98962.13;;;26.03;52.74
62548;BME280;48602;45.192;5.722;2023-06-19T11:07:35;98950.44;;;25.95;53.31
62548;BME280;48602;45.192;5.722;2023-06-19T11:10:02;98948.91;;;25.92;53.27
62548;BME280;48602;45.192;5.722;2023-06-19T11:12:27;98955.69;;;25.96;53.26
62548;BME280;48602;45.192;5.722;2023-06-19T11:14:53;98945.72;;;25.97;52.62
62548;BME280;48602;45.192;5.722;2023-06-19T11:17:18;98940.13;;;25.98;52.16
62548;BME280;48602;45.192;5.722;2023-06-19T11:19:46;98931.53;;;25.95;52.17
62548;BME280;48602;45.192;5.722;2023-06-19T11:22:11;98936.78;;;25.96;52.29
62548;BME280;48602;45.192;5.722;2023-06-19T11:24:43;98922.91;;;25.99;51.48
62548;BME280;48602;45.192;5.722;2023-06-19T11:27:16;98935.78;;;26.05;51.31
62548;BME280;48602;45.192;5.722;2023-06-19T11:29:42;98921.94;;;26.17;50.49
62548;BME280;48602;45.192;5.722;2023-06-19T11:32:15;98917.44;;;26.25;49.63
62548;BME280;48602;45.192;5.722;2023-06-19T11:34:43;98910.72;;;26.29;48.76
62548;BME280;48602;45.192;5.722;2023-06-19T11:37:14;98891.78;;;26.37;48.40
62548;BME280;48602;45.192;5.722;2023-06-19T11:39:40;98891.44;;;26.49;48.57
62548;BME280;48602;45.192;5.722;2023-06-19T11:42:07;98887.41;;;26.61;46.90
62548;BME280;48602;45.192;5.722;2023-06-19T11:44:33;98903.31;;;26.72;44.40
62548;BME280;48602;45.192;5.722;2023-06-19T11:46:59;98886.06;;;26.81;43.96
62548;BME280;48602;45.192;5.722;2023-06-19T11:49:25;98876.91;;;26.90;44.97
62548;BME280;48602;45.192;5.722;2023-06-19T11:51:51;98882.00;;;27.01;44.76
62548;BME280;48602;45.192;5.722;2023-06-19T11:54:16;98868.81;;;27.06;44.60
62548;BME280;48602;45.192;5.722;2023-06-19T11:56:43;98851.72;;;27.14;44.11
62548;BME280;48602;45.192;5.722;2023-06-19T11:59:08;98843.22;;;27.17;44.75
62548;BME280;48602;45.192;5.722;2023-06-19T12:01:35;98859.47;;;27.25;44.15
62548;BME280;48602;45.192;5.722;2023-06-19T12:04:01;98851.13;;;27.35;44.33
62548;BME280;48602;45.192;5.722;2023-06-19T12:06:27;98857.88;;;27.47;44.54
62548;BME280;48602;45.192;5.722;2023-06-19T12:08:53;98845.13;;;27.56;43.96
62548;BME280;48602;45.192;5.722;2023-06-19T12:11:18;98861.38;;;27.64;43.26
62548;BME280;48602;45.192;5.722;2023-06-19T12:13:44;98837.47;;;27.67;43.92
62548;BME280;48602;45.192;5.722;2023-06-19T12:16:10;98838.81;;;27.71;43.48
62548;BME280;48602;45.192;5.722;2023-06-19T12:18:36;98839.13;;;27.76;43.67
62548;BME280;48602;45.192;5.722;2023-06-19T12:21:01;98824.00;;;27.82;44.09
62548;BME280;48602;45.192;5.722;2023-06-19T12:23:27;98819.75;;;27.88;43.63
62548;BME280;48602;45.192;5.722;2023-06-19T12:25:52;98821.44;;;27.89;44.03
62548;BME280;48602;45.192;5.722;2023-06-19T12:28:17;98812.28;;;27.90;44.09
62548;BME280;48602;45.192;5.722;2023-06-19T12:30:47;98799.91;;;27.95;44.01
62548;BME280;48602;45.192;5.722;2023-06-19T12:33:16;98808.13;;;28.02;43.73
62548;BME280;48602;45.192;5.722;2023-06-19T12:35:42;98801.16;;;28.07;43.77
62548;BME280;48602;45.192;5.722;2023-06-19T12:38:08;98798.38;;;28.15;43.48
62548;BME280;48602;45.192;5.722;2023-06-19T12:40:35;98797.50;;;28.23;43.65
62548;BME280;48602;45.192;5.722;2023-06-19T12:43:01;98800.34;;;28.30;43.21
62548;BME280;48602;45.192;5.722;2023-06-19T12:45:26;98790.63;;;28.35;43.34
62548;BME280;48602;45.192;5.722;2023-06-19T12:47:52;98800.25;;;28.38;43.21
62548;BME280;48602;45.192;5.722;2023-06-19T12:50:17;98785.31;;;28.42;43.32
62548;BME280;48602;45.192;5.722;2023-06-19T12:52:43;98787.09;;;28.49;43.50
62548;BME280;48602;45.192;5.722;2023-06-19T12:55:08;98781.44;;;28.59;42.01
62548;BME280;48602;45.192;5.722;2023-06-19T12:57:34;98779.66;;;28.66;42.77
62548;BME280;48602;45.192;5.722;2023-06-19T12:59:59;98781.63;;;28.72;42.75
62548;BME280;48602;45.192;5.722;2023-06-19T13:02:24;98779.22;;;28.77;42.52